Time;durP1;ratioP1;P1;durP2;ratioP2;P2;SDS_P1;SDS_P2;PMS_P1;PMS_P2;Temp;Humidity;BMP_temperature;BMP_pressure;BME280_temperature;BME280_humidity;BME280_pressure;Samples;Min_cycle;Max_cycle;Signal;HPM_P1;HPM_P2
2023/02/04 00:00:14;;;;;;;3.87;1.77;;;;;;;1.84;100.00;101554.78;4956052;28;20055;-81
2023/02/04 00:02:42;;;;;;;2.07;1.40;;;;;;;1.81;100.00;101555.59;4980289;28;20053;-81
2023/02/04 00:05:10;;;;;;;2.90;1.40;;;;;;;1.87;100.00;101568.81;4977731;28;20105;-80
2023/02/04 00:07:36;;;;;;;3.30;1.40;;;;;;;1.85;100.00;101580.00;4969268;28;20035;-80
2023/02/04 00:10:08;;;;;;;3.20;1.47;;;;;;;1.82;100.00;101590.34;4987775;28;20044;-80
2023/02/04 00:12:38;;;;;;;2.23;1.57;;;;;;;1.68;100.00;101595.13;4956300;28;20039;-81
2023/02/04 00:15:06;;;;;;;3.07;1.77;;;;;;;1.65;100.00;101613.28;4964417;28;20066;-80
2023/02/04 00:17:32;;;;;;;5.93;1.70;;;;;;;1.70;100.00;101619.53;4974071;28;20042;-81
2023/02/04 00:19:59;;;;;;;2.83;1.67;;;;;;;1.57;100.00;101622.59;4943902;28;20074;-81
2023/02/04 00:22:27;;;;;;;5.17;1.60;;;;;;;1.68;100.00;101629.00;4976002;28;20475;-80
2023/02/04 00:24:55;;;;;;;3.10;1.53;;;;;;;1.63;100.00;101639.28;4978348;28;20036;-80
2023/02/04 00:27:25;;;;;;;3.17;1.80;;;;;;;1.64;100.00;101643.66;4973869;28;20054;-79
2023/02/04 00:29:56;;;;;;;4.97;1.83;;;;;;;1.66;100.00;101652.41;4961262;28;20047;-81
2023/02/04 00:32:23;;;;;;;2.60;1.40;;;;;;;1.65;100.00;101652.34;4946350;28;20046;-79
2023/02/04 00:34:52;;;;;;;1.77;1.17;;;;;;;1.47;100.00;101657.88;4977755;28;20433;-80
2023/02/04 00:37:21;;;;;;;4.63;1.43;;;;;;;1.55;100.00;101679.84;4955426;28;20133;-79
2023/02/04 00:39:48;;;;;;;2.17;1.20;;;;;;;1.44;100.00;101698.56;4975382;28;20038;-81
2023/02/04 00:42:15;;;;;;;2.20;1.40;;;;;;;1.40;100.00;101700.16;4993367;28;20093;-79
2023/02/04 00:44:42;;;;;;;1.53;0.80;;;;;;;1.48;100.00;101703.91;4979940;28;20042;-80
2023/02/04 00:47:08;;;;;;;2.60;0.93;;;;;;;1.31;100.00;101716.34;4969506;28;20047;-80
2023/02/04 00:49:35;;;;;;;1.53;1.03;;;;;;;1.24;100.00;101727.38;4963436;28;20038;-78
2023/02/04 00:52:02;;;;;;;1.00;0.90;;;;;;;1.19;100.00;101735.91;4958692;28;20035;-80
2023/02/04 00:54:29;;;;;;;1.03;0.73;;;;;;;1.11;100.00;101744.31;4975833;28;20042;-79
2023/02/04 00:56:56;;;;;;;2.20;1.33;;;;;;;1.05;100.00;101758.81;4976857;28;20042;-80
2023/02/04 00:59:23;;;;;;;1.43;0.70;;;;;;;1.05;100.00;101762.31;4960575;28;20048;-80
2023/02/04 01:01:53;;;;;;;2.13;0.70;;;;;;;0.94;100.00;101768.84;4972311;28;20063;-79
2023/02/04 01:04:23;;;;;;;1.47;0.80;;;;;;;0.95;100.00;101775.81;4977523;28;20043;-82
2023/02/04 01:06:51;;;;;;;1.53;0.87;;;;;;;0.92;100.00;101801.69;4973705;28;20412;-81
2023/02/04 01:09:17;;;;;;;1.97;1.00;;;;;;;0.78;100.00;101809.00;4966632;28;20043;-81
2023/02/04 01:11:47;;;;;;;1.80;0.70;;;;;;;0.67;100.00;101807.69;4959611;28;20533;-80
2023/02/04 01:14:14;;;;;;;1.20;0.90;;;;;;;0.51;100.00;101818.38;4937097;28;20665;-80
2023/02/04 01:16:41;;;;;;;1.67;1.03;;;;;;;0.64;100.00;101827.53;4970195;28;20038;-82
2023/02/04 01:19:08;;;;;;;2.33;1.00;;;;;;;0.62;100.00;101843.06;4952608;28;20066;-81
2023/02/04 01:21:35;;;;;;;2.30;1.20;;;;;;;0.66;100.00;101846.66;4973069;28;20035;-80
2023/02/04 01:24:02;;;;;;;3.17;1.10;;;;;;;0.73;100.00;101859.09;4974841;28;20496;-81
2023/02/04 01:26:29;;;;;;;2.60;1.10;;;;;;;0.69;100.00;101847.69;4970336;28;20043;-80
2023/02/04 01:28:55;;;;;;;3.53;1.10;;;;;;;0.74;100.00;101872.13;4970505;28;20782;-81
2023/02/04 01:31:22;;;;;;;1.57;1.10;;;;;;;0.66;100.00;101876.16;4941569;28;20042;-80
2023/02/04 01:33:49;;;;;;;1.60;1.20;;;;;;;0.70;100.00;101872.88;4972758;28;20040;-81
2023/02/04 01:36:20;;;;;;;3.07;1.30;;;;;;;0.67;100.00;101884.84;4993820;28;20448;-82
2023/02/04 01:38:50;;;;;;;4.27;1.30;;;;;;;0.44;100.00;101890.03;4974191;28;20050;-80
2023/02/04 01:41:21;;;;;;;3.95;1.10;;;;;;;0.51;100.00;101892.06;4975508;28;20097;-82
2023/02/04 01:43:48;;;;;;;1.77;1.00;;;;;;;0.48;100.00;101891.91;4967890;28;20499;-81
2023/02/04 01:46:15;;;;;;;2.77;0.93;;;;;;;0.46;100.00;101890.97;4987552;28;20475;-80
2023/02/04 01:48:43;;;;;;;1.43;1.10;;;;;;;0.42;100.00;101908.97;4979256;28;20049;-80
2023/02/04 01:51:12;;;;;;;5.03;1.30;;;;;;;0.38;100.00;101900.19;4954787;28;20035;-82
2023/02/04 01:53:39;;;;;;;4.17;1.20;;;;;;;0.33;100.00;101919.88;4960373;28;20403;-81
2023/02/04 01:56:20;;;;;;;2.50;1.20;;;;;;;0.38;100.00;101927.88;4974641;28;20035;-82
2023/02/04 01:58:47;;;;;;;3.13;1.40;;;;;;;0.13;100.00;101926.88;4969882;28;20042;-82
2023/02/04 02:01:31;;;;;;;2.30;1.37;;;;;;;0.19;100.00;101928.84;4974378;28;20510;-80
2023/02/04 02:03:58;;;;;;;8.57;3.03;;;;;;;0.12;100.00;101945.00;4970014;28;20045;-80
2023/02/04 02:06:25;;;;;;;2.77;1.23;;;;;;;0.17;100.00;101949.56;4958266;28;20130;-80
2023/02/04 02:08:52;;;;;;;3.53;0.83;;;;;;;0.13;100.00;101952.84;4942712;28;20039;-80
2023/02/04 02:11:19;;;;;;;3.30;1.40;;;;;;;-0.03;100.00;101966.91;4965882;28;20038;-80
2023/02/04 02:13:46;;;;;;;2.53;1.40;;;;;;;0.10;100.00;101977.84;4964101;28;20054;-80
2023/02/04 02:16:12;;;;;;;5.33;1.13;;;;;;;0.05;100.00;101987.13;4955452;28;20050;-80
2023/02/04 02:18:39;;;;;;;4.37;1.60;;;;;;;0.23;100.00;102001.78;4981161;28;20050;-80
2023/02/04 02:21:08;;;;;;;1.13;0.90;;;;;;;0.09;100.00;102008.13;4976044;28;20038;-80
2023/02/04 02:23:49;;;;;;;2.53;1.17;;;;;;;-0.05;100.00;102010.13;4963254;28;20129;-80
2023/02/04 02:26:19;;;;;;;2.37;1.10;;;;;;;0.01;100.00;102019.91;4971239;28;20135;-80
2023/02/04 02:28:49;;;;;;;1.47;1.00;;;;;;;-0.12;100.00;102015.84;4960521;28;20038;-80
2023/02/04 02:31:18;;;;;;;2.43;1.07;;;;;;;-0.17;100.00;102030.38;4967572;28;20421;-79
2023/02/04 02:33:46;;;;;;;2.20;1.00;;;;;;;-0.23;100.00;102043.06;4949678;28;20073;-80
2023/02/04 02:36:13;;;;;;;2.17;1.03;;;;;;;-0.21;100.00;102038.81;4969448;28;20062;-80
2023/02/04 02:38:42;;;;;;;2.53;0.80;;;;;;;-0.21;100.00;102051.81;4968961;28;20047;-79
2023/02/04 02:41:09;;;;;;;1.40;0.93;;;;;;;-0.18;100.00;102049.34;4981847;28;20035;-80
2023/02/04 02:43:36;;;;;;;2.67;1.03;;;;;;;-0.21;100.00;102058.72;4954539;28;20039;-79
2023/02/04 02:46:03;;;;;;;1.03;0.80;;;;;;;-0.29;100.00;102061.84;4941875;28;20423;-80
2023/02/04 02:48:30;;;;;;;3.03;0.90;;;;;;;-0.10;100.00;102073.94;4966093;28;20050;-79
2023/02/04 02:50:57;;;;;;;1.70;0.80;;;;;;;-0.25;100.00;102078.47;4977899;28;20046;-80
2023/02/04 02:53:23;;;;;;;2.33;0.97;;;;;;;-0.16;100.00;102084.09;4953739;28;20050;-80
2023/02/04 02:55:50;;;;;;;1.73;1.10;;;;;;;-0.15;100.00;102095.38;4962627;28;20042;-79
2023/02/04 02:58:33;;;;;;;2.37;1.00;;;;;;;-0.12;100.00;102103.28;4983098;28;20047;-80
2023/02/04 03:01:02;;;;;;;1.50;0.90;;;;;;;-0.14;100.00;102111.00;4948150;28;20039;-79
2023/02/04 03:03:31;;;;;;;2.63;1.10;;;;;;;0.04;100.00;102112.66;4985078;28;20034;-80
2023/02/04 03:06:04;;;;;;;2.53;0.90;;;;;;;-0.07;100.00;102110.47;4940311;28;20139;-79
2023/02/04 03:08:32;;;;;;;3.08;1.70;;;;;;;-0.04;100.00;102110.59;4976318;28;20043;-78
2023/02/04 03:10:58;;;;;;;1.27;1.00;;;;;;;0.08;100.00;102117.16;4991201;28;20084;-79
2023/02/04 03:13:28;;;;;;;1.20;0.73;;;;;;;0.22;100.00;102118.69;4976223;28;20043;-78
2023/02/04 03:15:55;;;;;;;5.00;1.00;;;;;;;0.26;100.00;102131.91;4977396;28;20051;-79
2023/02/04 03:18:22;;;;;;;2.63;0.97;;;;;;;0.24;100.00;102141.31;4949520;28;20097;-79
2023/02/04 03:20:50;;;;;;;1.80;1.30;;;;;;;0.15;100.00;102150.41;4944358;28;20061;-79
2023/02/04 03:23:17;;;;;;;2.80;0.97;;;;;;;0.13;100.00;102154.66;4962469;28;20039;-78
2023/02/04 03:25:46;;;;;;;2.83;0.70;;;;;;;0.12;100.00;102156.38;4959163;28;20050;-78
2023/02/04 03:28:13;;;;;;;1.93;1.20;;;;;;;0.10;100.00;102165.81;4971414;28;21581;-78
2023/02/04 03:30:39;;;;;;;2.90;0.90;;;;;;;0.12;100.00;102160.69;4986191;28;20089;-78
2023/02/04 03:33:06;;;;;;;3.70;0.90;;;;;;;0.06;100.00;102176.88;4965758;28;20059;-78
2023/02/04 03:35:33;;;;;;;1.20;0.90;;;;;;;0.11;100.00;102177.97;4964815;28;20067;-78
2023/02/04 03:38:03;;;;;;;2.37;0.90;;;;;;;0.17;100.00;102193.88;4939697;28;20066;-78
2023/02/04 03:40:30;;;;;;;1.57;0.80;;;;;;;0.11;100.00;102201.38;4972301;28;20057;-79
2023/02/04 03:42:57;;;;;;;1.47;0.80;;;;;;;0.01;100.00;102201.78;4977035;28;20038;-78
2023/02/04 03:45:26;;;;;;;1.73;0.70;;;;;;;-0.07;100.00;102201.41;4984098;28;20518;-79
2023/02/04 03:48:00;;;;;;;0.97;0.80;;;;;;;-0.08;100.00;102219.53;4957151;28;20109;-78
2023/02/04 03:50:27;;;;;;;1.20;0.80;;;;;;;-0.04;100.00;102222.31;4995387;28;20038;-78
2023/02/04 03:52:53;;;;;;;4.97;1.30;;;;;;;-0.15;100.00;102236.50;4975123;28;20049;-78
2023/02/04 03:55:20;;;;;;;2.23;0.90;;;;;;;-0.24;100.00;102245.56;4975884;28;20050;-79
2023/02/04 03:57:47;;;;;;;1.67;0.90;;;;;;;-0.30;100.00;102247.03;4975106;28;20073;-79
2023/02/04 04:00:13;;;;;;;1.13;0.77;;;;;;;-0.31;100.00;102265.16;4984235;28;20125;-79
2023/02/04 04:02:40;;;;;;;1.80;0.93;;;;;;;-0.39;100.00;102266.47;4975192;28;20097;-79
2023/02/04 04:05:08;;;;;;;3.23;1.00;;;;;;;-0.44;100.00;102270.53;4977225;28;20097;-79
2023/02/04 04:07:35;;;;;;;1.97;0.70;;;;;;;-0.50;100.00;102283.25;4974008;28;20046;-79
2023/02/04 04:10:02;;;;;;;2.33;0.77;;;;;;;-0.44;100.00;102296.50;4953068;28;20510;-79
2023/02/04 04:12:28;;;;;;;2.80;1.00;;;;;;;-0.53;100.00;102296.94;4981779;28;20026;-78
2023/02/04 04:14:55;;;;;;;3.03;1.10;;;;;;;-0.42;100.00;102310.44;4986233;28;20053;-80
2023/02/04 04:17:22;;;;;;;1.87;0.80;;;;;;;-0.38;100.00;102312.41;4978357;28;20484;-79
2023/02/04 04:19:48;;;;;;;1.67;0.80;;;;;;;-0.34;100.00;102314.31;4984233;28;20039;-78
2023/02/04 04:22:15;;;;;;;1.83;0.90;;;;;;;-0.22;100.00;102327.94;4980147;28;20666;-78
2023/02/04 04:24:42;;;;;;;1.70;1.00;;;;;;;-0.16;100.00;102332.56;4980767;28;20058;-79
2023/02/04 04:27:08;;;;;;;1.87;1.20;;;;;;;-0.16;100.00;102333.44;4995847;28;20039;-79
2023/02/04 04:29:35;;;;;;;1.63;0.90;;;;;;;-0.07;100.00;102344.28;4991861;28;20492;-80
2023/02/04 04:32:04;;;;;;;3.97;1.07;;;;;;;-0.13;100.00;102343.97;5042012;23;20227;-78
2023/02/04 04:34:30;;;;;;;3.47;1.10;;;;;;;-0.19;100.00;102354.06;5014883;28;20481;-76
2023/02/04 04:36:57;;;;;;;1.23;0.63;;;;;;;-0.28;100.00;102359.66;5016415;28;20045;-77
2023/02/04 04:39:25;;;;;;;1.57;1.43;;;;;;;-0.29;100.00;102367.41;5025999;28;20044;-77
2023/02/04 04:41:52;;;;;;;1.40;0.80;;;;;;;-0.13;100.00;102367.34;5028250;28;20502;-77
2023/02/04 04:44:19;;;;;;;1.27;0.90;;;;;;;-0.12;100.00;102374.31;5025123;28;20053;-80
2023/02/04 04:46:46;;;;;;;1.80;0.80;;;;;;;-0.18;100.00;102379.22;4988114;28;20045;-81
2023/02/04 04:49:13;;;;;;;3.50;0.90;;;;;;;-0.16;100.00;102380.19;4986825;28;20037;-80
2023/02/04 04:51:40;;;;;;;1.53;0.80;;;;;;;-0.12;100.00;102387.31;5025486;28;20030;-79
2023/02/04 04:54:07;;;;;;;1.93;1.10;;;;;;;-0.26;100.00;102388.31;4991841;28;20045;-78
2023/02/04 04:56:33;;;;;;;2.87;1.00;;;;;;;-0.17;100.00;102393.09;5007242;28;20039;-78
2023/02/04 04:59:00;;;;;;;1.60;1.07;;;;;;;-0.21;100.00;102402.44;5006437;28;20128;-78
2023/02/04 05:01:27;;;;;;;2.17;1.00;;;;;;;-0.29;100.00;102419.34;5012027;28;20048;-79
2023/02/04 05:03:53;;;;;;;1.07;0.90;;;;;;;-0.19;100.00;102420.69;4998390;28;20049;-77
2023/02/04 05:06:24;;;;;;;2.13;1.03;;;;;;;-0.23;100.00;102424.84;5008399;28;20038;-78
2023/02/04 05:08:51;;;;;;;4.63;1.37;;;;;;;-0.21;100.00;102436.22;5008640;28;20033;-78
2023/02/04 05:11:18;;;;;;;1.27;0.80;;;;;;;-0.14;100.00;102440.03;4999663;28;20053;-79
2023/02/04 05:13:45;;;;;;;3.27;1.17;;;;;;;-0.31;100.00;102447.81;5031203;28;20040;-78
2023/02/04 05:16:12;;;;;;;1.20;1.00;;;;;;;-0.25;100.00;102451.53;5010923;28;20099;-77
2023/02/04 05:18:39;;;;;;;2.10;0.90;;;;;;;-0.26;100.00;102460.16;5010612;28;20038;-78
2023/02/04 05:21:06;;;;;;;4.23;1.20;;;;;;;-0.21;100.00;102469.97;5004401;28;20041;-78
2023/02/04 05:23:33;;;;;;;1.80;1.00;;;;;;;-0.37;100.00;102463.09;5030432;28;20095;-78
2023/02/04 05:25:59;;;;;;;3.03;1.00;;;;;;;-0.20;100.00;102476.94;4991644;28;20049;-77
2023/02/04 05:28:26;;;;;;;1.33;1.00;;;;;;;-0.31;100.00;102484.19;5013244;28;20049;-77
2023/02/04 05:30:53;;;;;;;3.00;1.00;;;;;;;-0.33;100.00;102484.94;5010857;28;20069;-77
2023/02/04 05:33:19;;;;;;;3.83;0.97;;;;;;;-0.36;100.00;102488.22;5022037;28;20033;-78
2023/02/04 05:35:46;;;;;;;1.27;0.83;;;;;;;-0.39;100.00;102498.47;4997124;28;20037;-77
2023/02/04 05:38:15;;;;;;;1.57;0.80;;;;;;;-0.30;100.00;102504.16;5012606;28;20104;-78
2023/02/04 05:40:42;;;;;;;2.60;1.00;;;;;;;-0.37;100.00;102514.13;5016793;28;20038;-77
2023/02/04 05:43:08;;;;;;;5.43;1.43;;;;;;;-0.34;100.00;102523.00;5025662;28;20033;-78
2023/02/04 05:45:37;;;;;;;2.80;0.93;;;;;;;-0.47;100.00;102527.44;5012439;28;20053;-78
2023/02/04 05:48:04;;;;;;;3.33;1.23;;;;;;;-0.39;100.00;102532.22;5007727;28;20118;-78
2023/02/04 05:50:31;;;;;;;2.63;1.17;;;;;;;-0.25;100.00;102534.66;5002576;28;20042;-79
2023/02/04 05:52:58;;;;;;;6.37;1.40;;;;;;;-0.37;100.00;102533.19;5026138;28;20048;-77
2023/02/04 05:55:25;;;;;;;1.77;0.97;;;;;;;-0.40;100.00;102539.94;5009732;28;20372;-81
2023/02/04 05:57:51;;;;;;;1.70;1.10;;;;;;;-0.51;100.00;102543.63;4985092;28;20038;-81
2023/02/04 06:00:18;;;;;;;2.20;1.10;;;;;;;-0.52;100.00;102540.16;5013414;28;20557;-81
2023/02/04 06:02:45;;;;;;;2.13;0.93;;;;;;;-0.59;100.00;102544.13;5008927;28;20053;-81
2023/02/04 06:05:11;;;;;;;1.40;0.90;;;;;;;-0.58;100.00;102556.31;5007603;28;20034;-81
2023/02/04 06:07:38;;;;;;;2.53;1.10;;;;;;;-0.63;100.00;102562.03;4993003;28;20738;-81
2023/02/04 06:10:05;;;;;;;3.67;1.40;;;;;;;-0.68;100.00;102566.97;4984664;28;20038;-81
2023/02/04 06:12:31;;;;;;;2.40;0.90;;;;;;;-0.73;100.00;102570.13;5019257;28;20053;-80
2023/02/04 06:14:58;;;;;;;2.27;0.90;;;;;;;-0.79;100.00;102580.16;5025236;28;20049;-81
2023/02/04 06:17:25;;;;;;;3.23;1.10;;;;;;;-0.80;100.00;102579.25;5004153;28;20049;-81
2023/02/04 06:19:51;;;;;;;1.60;1.10;;;;;;;-0.77;100.00;102579.44;4995963;28;20060;-81
2023/02/04 06:22:18;;;;;;;2.70;1.17;;;;;;;-0.82;100.00;102578.28;4996059;28;20568;-81
2023/02/04 06:24:45;;;;;;;2.70;1.13;;;;;;;-0.78;100.00;102593.22;5025377;28;20037;-81
2023/02/04 06:27:13;;;;;;;2.23;0.90;;;;;;;-0.72;100.00;102596.16;5000426;28;20049;-81
2023/02/04 06:29:39;;;;;;;1.93;1.43;;;;;;;-0.86;100.00;102595.38;5013447;28;20494;-81
2023/02/04 06:32:06;;;;;;;2.57;1.20;;;;;;;-0.86;100.00;102602.25;4997499;28;20474;-81
2023/02/04 06:34:33;;;;;;;2.33;1.00;;;;;;;-0.90;100.00;102600.31;4992811;28;20490;-81
2023/02/04 06:36:59;;;;;;;5.27;1.00;;;;;;;-0.89;100.00;102604.69;5007168;28;20604;-82
2023/02/04 06:39:26;;;;;;;4.13;1.10;;;;;;;-1.01;100.00;102601.38;5006503;28;20083;-80
2023/02/04 06:41:53;;;;;;;3.70;1.13;;;;;;;-0.96;100.00;102603.44;5004223;28;20233;-81
2023/02/04 06:44:19;;;;;;;2.70;0.80;;;;;;;-1.09;100.00;102607.81;4991461;28;20038;-82
2023/02/04 06:46:46;;;;;;;1.40;0.90;;;;;;;-1.13;100.00;102599.00;5013400;28;20042;-82
2023/02/04 06:49:13;;;;;;;1.20;0.80;;;;;;;-1.13;100.00;102609.38;4982612;28;20052;-81
2023/02/04 06:51:40;;;;;;;2.43;1.00;;;;;;;-1.12;100.00;102611.16;4996866;28;20421;-82
2023/02/04 06:54:06;;;;;;;2.00;0.90;;;;;;;-1.22;100.00;102614.91;5028293;28;20478;-82
2023/02/04 06:56:33;;;;;;;2.23;1.00;;;;;;;-1.24;100.00;102620.81;4995572;28;20037;-81
2023/02/04 06:59:00;;;;;;;2.57;1.00;;;;;;;-1.32;100.00;102611.69;4999531;28;20630;-82
2023/02/04 07:01:28;;;;;;;3.27;1.10;;;;;;;-1.21;100.00;102627.06;5012831;28;20050;-81
2023/02/04 07:03:55;;;;;;;2.70;0.83;;;;;;;-1.24;100.00;102631.19;5011767;28;20041;-81
2023/02/04 07:06:22;;;;;;;2.13;0.97;;;;;;;-1.23;100.00;102628.69;5018879;28;20052;-81
2023/02/04 07:08:49;;;;;;;0.80;0.70;;;;;;;-1.19;100.00;102635.81;5010564;28;20049;-81
2023/02/04 07:11:18;;;;;;;1.50;0.77;;;;;;;-1.29;100.00;102640.38;5004337;28;20037;-81
2023/02/04 07:13:49;;;;;;;1.65;1.23;;;;;;;-1.30;100.00;102647.28;4984903;28;20125;-81
2023/02/04 07:16:16;;;;;;;1.67;0.97;;;;;;;-1.25;100.00;102650.16;4981915;28;20047;-81
2023/02/04 07:18:42;;;;;;;3.37;1.20;;;;;;;-1.27;100.00;102654.31;5009523;28;20502;-81
2023/02/04 07:21:09;;;;;;;2.83;1.47;;;;;;;-1.39;100.00;102664.88;5000617;28;20046;-81
2023/02/04 07:23:36;;;;;;;5.50;2.13;;;;;;;-1.39;100.00;102651.91;5030834;28;20033;-80
2023/02/04 07:26:02;;;;;;;6.73;3.57;;;;;;;-1.32;100.00;102661.84;4990064;28;20042;-81
2023/02/04 07:28:30;;;;;;;6.47;2.93;;;;;;;-1.29;100.00;102661.13;4996601;28;20049;-81
2023/02/04 07:30:57;;;;;;;3.43;2.30;;;;;;;-1.23;100.00;102664.09;4996472;28;20053;-81
2023/02/04 07:33:23;;;;;;;5.27;2.67;;;;;;;-1.27;100.00;102670.78;5007540;28;20070;-81
2023/02/04 07:35:50;;;;;;;2.50;1.13;;;;;;;-1.09;100.00;102686.56;5027656;28;20040;-81
2023/02/04 07:38:17;;;;;;;2.47;1.50;;;;;;;-1.24;100.00;102689.13;5015851;28;20100;-81
2023/02/04 07:40:43;;;;;;;2.90;1.57;;;;;;;-1.31;100.00;102691.25;5007710;28;20048;-81
2023/02/04 07:43:10;;;;;;;2.67;1.23;;;;;;;-1.30;100.00;102698.25;5000024;28;20057;-81
2023/02/04 07:45:37;;;;;;;1.50;1.10;;;;;;;-1.27;100.00;102701.00;5005102;28;20056;-83
2023/02/04 07:48:04;;;;;;;1.87;0.90;;;;;;;-1.37;100.00;102707.34;5026738;28;20509;-80
2023/02/04 07:50:31;;;;;;;1.70;0.90;;;;;;;-1.35;100.00;102716.09;5009973;28;20487;-80
2023/02/04 07:52:58;;;;;;;1.23;1.10;;;;;;;-1.19;100.00;102729.19;5025113;28;20037;-81
2023/02/04 07:55:25;;;;;;;2.40;0.77;;;;;;;-1.22;100.00;102722.94;5007545;28;20064;-81
2023/02/04 07:57:51;;;;;;;3.90;1.00;;;;;;;-1.21;100.00;102735.09;5009902;28;20034;-82
2023/02/04 08:00:18;;;;;;;1.67;0.70;;;;;;;-1.13;100.00;102744.22;4995549;28;20047;-80
2023/02/04 08:02:45;;;;;;;3.47;1.20;;;;;;;-1.22;100.00;102736.78;4988089;28;20040;-80
2023/02/04 08:05:12;;;;;;;2.17;1.10;;;;;;;-1.02;100.00;102757.84;5014808;28;20061;-77
2023/02/04 08:07:39;;;;;;;4.67;1.10;;;;;;;-0.94;100.00;102762.69;4993410;28;20048;-77
2023/02/04 08:10:06;;;;;;;2.03;1.13;;;;;;;-0.91;100.00;102768.06;5020718;28;20038;-78
2023/02/04 08:12:33;;;;;;;2.53;1.13;;;;;;;-1.00;100.00;102762.34;5025602;28;20037;-78
2023/02/04 08:15:00;;;;;;;3.27;1.20;;;;;;;-1.01;100.00;102768.34;5009065;28;20495;-78
2023/02/04 08:17:27;;;;;;;4.83;1.13;;;;;;;-0.95;100.00;102775.56;5012521;28;20152;-77
2023/02/04 08:19:54;;;;;;;4.50;1.10;;;;;;;-0.88;100.00;102770.84;5011511;28;20045;-80
2023/02/04 08:22:21;;;;;;;3.33;1.30;;;;;;;-0.59;100.00;102780.38;4994338;28;20038;-80
2023/02/04 08:24:47;;;;;;;5.20;1.20;;;;;;;-0.75;100.00;102769.88;4989631;28;20044;-80
2023/02/04 08:27:14;;;;;;;2.13;1.20;;;;;;;-0.64;100.00;102766.22;4997809;28;20157;-79
2023/02/04 08:29:41;;;;;;;3.43;1.27;;;;;;;-0.62;100.00;102779.28;5000375;28;20601;-80
2023/02/04 08:32:09;;;;;;;3.27;1.30;;;;;;;-0.60;100.00;102782.84;5002878;28;20053;-80
2023/02/04 08:34:36;;;;;;;7.27;3.17;;;;;;;-0.51;100.00;102787.69;5005853;28;20041;-80
2023/02/04 08:37:03;;;;;;;2.90;1.17;;;;;;;-0.45;100.00;102788.94;4993864;28;20443;-82
2023/02/04 08:39:29;;;;;;;5.50;1.30;;;;;;;-0.47;100.00;102787.06;4995865;28;20045;-80
2023/02/04 08:41:56;;;;;;;1.47;1.10;;;;;;;-0.47;100.00;102790.56;5024817;28;20041;-81
2023/02/04 08:44:23;;;;;;;2.90;1.10;;;;;;;-0.43;100.00;102791.63;5010657;28;20056;-81
2023/02/04 08:46:50;;;;;;;2.87;1.40;;;;;;;-0.33;100.00;102791.38;4996596;28;20041;-80
2023/02/04 08:49:16;;;;;;;8.27;1.40;;;;;;;-0.11;100.00;102798.69;4997599;28;20041;-80
2023/02/04 08:51:43;;;;;;;7.57;2.13;;;;;;;-0.11;100.00;102798.69;5009497;28;20045;-80
2023/02/04 08:54:09;;;;;;;2.53;1.70;;;;;;;-0.08;100.00;102794.56;5011031;28;20038;-80
2023/02/04 08:56:36;;;;;;;3.40;1.33;;;;;;;-0.06;100.00;102810.25;4998521;28;20037;-80
2023/02/04 08:59:03;;;;;;;1.70;1.00;;;;;;;-0.02;100.00;102805.28;4995013;28;20104;-80
2023/02/04 09:01:30;;;;;;;3.03;1.03;;;;;;;0.11;100.00;102806.91;5011047;28;20100;-80
2023/02/04 09:03:57;;;;;;;1.80;1.00;;;;;;;0.20;100.00;102801.31;5009153;28;20045;-81
2023/02/04 09:06:23;;;;;;;3.43;1.57;;;;;;;0.24;100.00;102816.25;5003622;28;20045;-81
2023/02/04 09:08:50;;;;;;;4.67;1.53;;;;;;;0.39;100.00;102817.13;4996428;28;20037;-81
2023/02/04 09:11:17;;;;;;;4.13;1.60;;;;;;;0.31;100.00;102817.50;4991520;28;20037;-80
2023/02/04 09:13:43;;;;;;;4.30;1.30;;;;;;;0.35;100.00;102819.47;5008226;28;20245;-81
2023/02/04 09:16:10;;;;;;;1.10;0.93;;;;;;;0.34;100.00;102826.41;5000790;28;20037;-81
2023/02/04 09:18:37;;;;;;;4.13;1.40;;;;;;;0.44;100.00;102827.78;4989587;28;20041;-81
2023/02/04 09:21:04;;;;;;;5.90;1.10;;;;;;;0.62;100.00;102825.31;4993275;28;20087;-82
2023/02/04 09:23:30;;;;;;;3.13;1.00;;;;;;;0.61;100.00;102823.53;5026405;28;20044;-83
2023/02/04 09:25:57;;;;;;;3.80;1.30;;;;;;;0.54;100.00;102835.28;4995463;28;20651;-81
2023/02/04 09:28:24;;;;;;;4.17;1.10;;;;;;;0.71;100.00;102839.69;5007542;28;20090;-81
2023/02/04 09:30:50;;;;;;;4.07;1.50;;;;;;;0.70;100.00;102835.31;4987405;28;20042;-81
2023/02/04 09:33:17;;;;;;;4.40;1.10;;;;;;;0.92;100.00;102837.34;4994359;28;20048;-82
2023/02/04 09:35:44;;;;;;;4.60;1.10;;;;;;;0.91;100.00;102839.88;5011463;28;20053;-82
2023/02/04 09:38:11;;;;;;;3.00;1.07;;;;;;;0.98;100.00;102842.88;4998258;28;20049;-82
2023/02/04 09:40:41;;;;;;;2.40;0.90;;;;;;;0.99;100.00;102847.28;4998282;28;20037;-82
2023/02/04 09:43:11;;;;;;;2.40;1.00;;;;;;;1.21;100.00;102853.63;5013704;28;20045;-82
2023/02/04 09:45:38;;;;;;;2.27;1.00;;;;;;;1.34;100.00;102854.34;4997360;28;20041;-82
2023/02/04 09:48:05;;;;;;;4.57;1.20;;;;;;;1.73;100.00;102856.31;5014808;28;20045;-82
2023/02/04 09:50:33;;;;;;;3.07;0.80;;;;;;;1.75;100.00;102857.28;4996923;28;20041;-82
2023/02/04 09:53:02;;;;;;;2.40;0.90;;;;;;;1.90;100.00;102860.66;4998122;28;20048;-82
2023/02/04 09:55:38;;;;;;;0.93;0.77;;;;;;;1.85;100.00;102869.97;4996982;28;20144;-81
2023/02/04 09:58:16;;;;;;;2.20;0.80;;;;;;;1.82;100.00;102865.50;5011394;28;20049;-81
2023/02/04 10:00:44;;;;;;;2.77;0.80;;;;;;;1.86;100.00;102863.97;5006475;28;20053;-82
2023/02/04 10:03:16;;;;;;;1.60;0.80;;;;;;;1.75;100.00;102867.72;4999696;28;20055;-81
2023/02/04 10:05:44;;;;;;;2.70;1.00;;;;;;;1.73;100.00;102877.16;5007674;28;20041;-81
2023/02/04 10:08:16;;;;;;;0.80;0.70;;;;;;;1.52;100.00;102867.44;5006703;28;20053;-82
2023/02/04 10:10:47;;;;;;;3.57;1.33;;;;;;;1.49;100.00;102884.63;4999257;28;20060;-81
2023/02/04 10:13:29;;;;;;;2.20;1.10;;;;;;;1.64;100.00;102886.31;4996619;28;20046;-79
2023/02/04 10:15:57;;;;;;;3.17;1.33;;;;;;;1.79;100.00;102882.69;5021735;28;20053;-79
2023/02/04 10:18:33;;;;;;;1.37;0.90;;;;;;;1.65;100.00;102895.91;5022766;28;20140;-79
2023/02/04 10:21:25;;;;;;;0.87;0.60;;;;;;;1.76;100.00;102886.03;5021922;28;20049;-79
2023/02/04 10:24:00;;;;;;;2.93;0.70;;;;;;;1.73;100.00;102893.69;5032660;28;20044;-79
2023/02/04 10:26:29;;;;;;;2.93;1.43;;;;;;;1.70;100.00;102896.16;5006168;28;20045;-79
2023/02/04 10:29:20;;;;;;;1.53;0.80;;;;;;;1.93;100.00;102892.09;4997268;28;20049;-80
2023/02/04 10:31:48;;;;;;;1.10;0.50;;;;;;;1.92;100.00;102898.13;5014612;28;20056;-81
2023/02/04 10:34:38;;;;;;;1.43;0.73;;;;;;;1.90;100.00;102902.38;5025934;28;20046;-80
2023/02/04 10:37:26;;;;;;;2.30;0.77;;;;;;;1.87;100.00;102903.13;5011536;28;20065;-80
2023/02/04 10:39:53;;;;;;;2.17;0.80;;;;;;;2.05;100.00;102897.03;4990650;28;20053;-84
2023/02/04 10:42:25;;;;;;;1.50;0.70;;;;;;;2.01;100.00;102895.09;5009220;28;20100;-82
2023/02/04 10:44:52;;;;;;;1.40;0.70;;;;;;;2.09;100.00;102897.25;4991379;28;20406;-84
2023/02/04 10:47:24;;;;;;;2.73;0.80;;;;;;;2.25;100.00;102901.53;5008638;28;20049;-83
2023/02/04 10:49:55;;;;;;;4.20;0.80;;;;;;;2.34;100.00;102898.47;5010312;28;20042;-82
2023/02/04 10:52:25;;;;;;;2.03;0.77;;;;;;;2.25;100.00;102894.59;5018298;28;20526;-83
2023/02/04 10:54:52;;;;;;;3.20;0.80;;;;;;;2.40;100.00;102898.78;4991900;28;20046;-84
2023/02/04 10:57:25;;;;;;;0.90;0.60;;;;;;;2.65;100.00;102901.75;4991299;28;20050;-82
2023/02/04 10:59:54;;;;;;;1.87;1.07;;;;;;;2.74;100.00;102901.28;4990730;28;20055;-83
2023/02/04 11:02:53;;;;;;;1.77;0.83;;;;;;;2.39;100.00;102903.09;4990075;28;20113;-83
2023/02/04 11:05:22;;;;;;;1.13;0.70;;;;;;;2.45;97.85;102907.75;5011112;28;20099;-84
2023/02/04 11:07:49;;;;;;;1.50;0.60;;;;;;;2.28;100.00;102916.44;5027646;28;20038;-83
2023/02/04 11:10:20;;;;;;;2.50;1.10;;;;;;;2.35;98.67;102913.31;5004940;28;20049;-84
2023/02/04 11:12:58;;;;;;;1.43;0.63;;;;;;;2.63;100.00;102916.44;5009250;28;20056;-84
2023/02/04 11:15:46;;;;;;;1.53;0.90;;;;;;;2.91;100.00;102917.75;5013843;28;20049;-84
2023/02/04 11:18:19;;;;;;;2.07;0.77;;;;;;;3.31;95.45;102905.69;4998056;28;20893;-84
2023/02/04 11:20:47;;;;;;;0.93;0.50;;;;;;;3.51;89.17;102898.75;5014234;28;20064;-85
2023/02/04 11:23:28;;;;;;;1.10;0.70;;;;;;;3.83;92.44;102905.38;4993873;28;20038;-84
2023/02/04 11:26:20;;;;;;;2.20;0.70;;;;;;;3.67;79.22;102911.66;4997278;28;20042;-86